DTTL

Kelibia Airport

Kelibia, Tunisia
METAR DTTL 180600Z 00000KT 6000 SCT020 13/13 Q1016
Observed Flight Rules
Feb-18 @ 06:00 UTC (an hour ago) Marginal Visual Flight Rules
Wind Visibility Clouds
Calm 6,003 meters
  • Scattered at 2,000' AGL
Temperatures Readings
Current 13°C / 55°F
Dewpoint 13°C / 55°F
Humidity 100%
Altimeter 30" Hg
Pressure 1016 hPa
Elevation 30
METAR DTTL 180600Z 00000KT 6000 SCT020 13/13 Q1016
Observed Flight Rules
Feb-18 @ 06:00 UTC
(an hour ago)
MVFR
Wind Visibility
Calm 6,003 meters
Clouds
  • Scattered at 2,000' AGL
Temperature Dewpoint
13°C / 55°F 13°C / 55°F
Humidity Altimeter Pressure
100% 30" Hg 1016 hPa